sensor_id;sensor_type;location;lat;lon;timestamp;temperature;humidity
18658;DHT22;9458;50.942;5.074;2023-09-19T00:01:44;16.50;99.90
18658;DHT22;9458;50.942;5.074;2023-09-19T00:04:24;16.40;99.90
18658;DHT22;9458;50.942;5.074;2023-09-19T00:07:14;16.50;99.90
18658;DHT22;9458;50.942;5.074;2023-09-19T00:09:44;16.40;99.90
18658;DHT22;9458;50.942;5.074;2023-09-19T00:12:12;16.30;99.90
18658;DHT22;9458;50.942;5.074;2023-09-19T00:14:40;16.30;99.90
18658;DHT22;9458;50.942;5.074;2023-09-19T00:17:12;16.40;99.90
18658;DHT22;9458;50.942;5.074;2023-09-19T00:19:41;16.30;99.90
18658;DHT22;9458;50.942;5.074;2023-09-19T00:22:13;16.40;99.90
18658;DHT22;9458;50.942;5.074;2023-09-19T00:24:41;16.50;99.90
18658;DHT22;9458;50.942;5.074;2023-09-19T00:27:08;16.40;99.90
18658;DHT22;9458;50.942;5.074;2023-09-19T00:29:45;16.50;99.90
18658;DHT22;9458;50.942;5.074;2023-09-19T00:32:14;16.50;99.90
18658;DHT22;9458;50.942;5.074;2023-09-19T00:34:45;16.30;99.90
18658;DHT22;9458;50.942;5.074;2023-09-19T00:37:14;16.30;99.90
18658;DHT22;9458;50.942;5.074;2023-09-19T00:39:44;16.40;99.90
18658;DHT22;9458;50.942;5.074;2023-09-19T00:42:17;16.40;99.90
18658;DHT22;9458;50.942;5.074;2023-09-19T00:44:45;16.40;99.90
18658;DHT22;9458;50.942;5.074;2023-09-19T00:47:23;16.30;99.90
18658;DHT22;9458;50.942;5.074;2023-09-19T00:49:53;16.10;99.90
18658;DHT22;9458;50.942;5.074;2023-09-19T00:52:20;16.20;99.90
18658;DHT22;9458;50.942;5.074;2023-09-19T00:54:47;16.30;99.90
18658;DHT22;9458;50.942;5.074;2023-09-19T00:57:14;16.30;99.90
18658;DHT22;9458;50.942;5.074;2023-09-19T00:59:43;16.30;99.90
18658;DHT22;9458;50.942;5.074;2023-09-19T01:02:10;16.30;99.90
18658;DHT22;9458;50.942;5.074;2023-09-19T01:04:40;16.30;99.90
18658;DHT22;9458;50.942;5.074;2023-09-19T01:07:09;16.30;99.90
18658;DHT22;9458;50.942;5.074;2023-09-19T01:09:36;16.30;99.90
18658;DHT22;9458;50.942;5.074;2023-09-19T01:12:04;16.20;99.90
18658;DHT22;9458;50.942;5.074;2023-09-19T01:14:37;16.20;99.90
18658;DHT22;9458;50.942;5.074;2023-09-19T01:17:07;16.20;99.90
18658;DHT22;9458;50.942;5.074;2023-09-19T01:19:47;16.20;99.90
18658;DHT22;9458;50.942;5.074;2023-09-19T01:22:24;16.20;99.90
18658;DHT22;9458;50.942;5.074;2023-09-19T01:27:49;16.20;99.90
18658;DHT22;9458;50.942;5.074;2023-09-19T01:30:23;16.10;99.90
18658;DHT22;9458;50.942;5.074;2023-09-19T01:32:54;16.00;99.90
18658;DHT22;9458;50.942;5.074;2023-09-19T01:35:21;16.00;99.90
18658;DHT22;9458;50.942;5.074;2023-09-19T01:37:50;16.00;99.90
18658;DHT22;9458;50.942;5.074;2023-09-19T01:40:19;16.00;99.90
18658;DHT22;9458;50.942;5.074;2023-09-19T01:42:49;15.90;99.90
18658;DHT22;9458;50.942;5.074;2023-09-19T01:45:24;16.00;99.90
18658;DHT22;9458;50.942;5.074;2023-09-19T01:47:54;15.90;99.90
18658;DHT22;9458;50.942;5.074;2023-09-19T01:50:26;15.80;99.90
18658;DHT22;9458;50.942;5.074;2023-09-19T01:52:57;15.80;99.90
18658;DHT22;9458;50.942;5.074;2023-09-19T01:55:26;15.80;99.90
18658;DHT22;9458;50.942;5.074;2023-09-19T01:57:58;15.80;99.90
18658;DHT22;9458;50.942;5.074;2023-09-19T02:00:29;15.80;99.90
18658;DHT22;9458;50.942;5.074;2023-09-19T02:03:09;15.80;99.90
18658;DHT22;9458;50.942;5.074;2023-09-19T02:05:37;15.80;99.90
18658;DHT22;9458;50.942;5.074;2023-09-19T02:08:04;15.80;99.90
18658;DHT22;9458;50.942;5.074;2023-09-19T02:10:32;15.70;99.90
18658;DHT22;9458;50.942;5.074;2023-09-19T02:13:07;15.70;99.90
18658;DHT22;9458;50.942;5.074;2023-09-19T02:15:46;15.70;99.90
18658;DHT22;9458;50.942;5.074;2023-09-19T02:18:14;15.70;99.90
18658;DHT22;9458;50.942;5.074;2023-09-19T02:20:41;15.70;99.90
18658;DHT22;9458;50.942;5.074;2023-09-19T02:23:09;15.60;99.90
18658;DHT22;9458;50.942;5.074;2023-09-19T02:25:36;15.60;99.90
18658;DHT22;9458;50.942;5.074;2023-09-19T02:28:04;15.60;99.90
18658;DHT22;9458;50.942;5.074;2023-09-19T02:30:31;15.70;99.90
18658;DHT22;9458;50.942;5.074;2023-09-19T02:32:59;15.70;99.90
18658;DHT22;9458;50.942;5.074;2023-09-19T02:35:28;15.70;99.90
18658;DHT22;9458;50.942;5.074;2023-09-19T02:37:58;15.70;99.90
18658;DHT22;9458;50.942;5.074;2023-09-19T02:40:25;15.70;99.90
18658;DHT22;9458;50.942;5.074;2023-09-19T02:42:54;15.70;99.90
18658;DHT22;9458;50.942;5.074;2023-09-19T02:45:25;15.60;99.90
18658;DHT22;9458;50.942;5.074;2023-09-19T02:47:53;15.60;99.90
18658;DHT22;9458;50.942;5.074;2023-09-19T02:50:23;15.50;99.90
18658;DHT22;9458;50.942;5.074;2023-09-19T02:52:50;15.50;99.90
18658;DHT22;9458;50.942;5.074;2023-09-19T02:55:17;15.60;99.90
18658;DHT22;9458;50.942;5.074;2023-09-19T02:57:45;15.50;99.90
18658;DHT22;9458;50.942;5.074;2023-09-19T03:00:13;15.50;99.90
18658;DHT22;9458;50.942;5.074;2023-09-19T03:02:41;15.60;99.90
18658;DHT22;9458;50.942;5.074;2023-09-19T03:05:08;15.50;99.90
18658;DHT22;9458;50.942;5.074;2023-09-19T03:07:38;15.60;99.90
18658;DHT22;9458;50.942;5.074;2023-09-19T03:10:05;15.60;99.90
18658;DHT22;9458;50.942;5.074;2023-09-19T03:12:33;15.60;99.90
18658;DHT22;9458;50.942;5.074;2023-09-19T03:15:01;15.50;99.90
18658;DHT22;9458;50.942;5.074;2023-09-19T03:17:29;15.50;99.90
18658;DHT22;9458;50.942;5.074;2023-09-19T03:19:58;15.50;99.90
18658;DHT22;9458;50.942;5.074;2023-09-19T03:22:26;15.50;99.90
18658;DHT22;9458;50.942;5.074;2023-09-19T03:24:55;15.50;99.90
18658;DHT22;9458;50.942;5.074;2023-09-19T03:27:22;15.40;99.90
18658;DHT22;9458;50.942;5.074;2023-09-19T03:29:49;15.40;99.90
18658;DHT22;9458;50.942;5.074;2023-09-19T03:32:16;15.40;99.90
18658;DHT22;9458;50.942;5.074;2023-09-19T03:34:44;15.50;99.90
18658;DHT22;9458;50.942;5.074;2023-09-19T03:37:14;15.50;99.90
18658;DHT22;9458;50.942;5.074;2023-09-19T03:39:41;15.50;99.90
18658;DHT22;9458;50.942;5.074;2023-09-19T03:42:10;15.60;99.90
18658;DHT22;9458;50.942;5.074;2023-09-19T03:44:38;15.60;99.90
18658;DHT22;9458;50.942;5.074;2023-09-19T03:47:05;15.60;99.90
18658;DHT22;9458;50.942;5.074;2023-09-19T03:49:32;15.60;99.90
18658;DHT22;9458;50.942;5.074;2023-09-19T03:51:59;15.50;99.90
18658;DHT22;9458;50.942;5.074;2023-09-19T03:54:26;15.60;99.90
18658;DHT22;9458;50.942;5.074;2023-09-19T03:56:53;15.50;99.90
18658;DHT22;9458;50.942;5.074;2023-09-19T03:59:22;15.40;99.90
18658;DHT22;9458;50.942;5.074;2023-09-19T04:01:49;15.50;99.90
18658;DHT22;9458;50.942;5.074;2023-09-19T04:04:21;15.40;99.90
18658;DHT22;9458;50.942;5.074;2023-09-19T04:06:50;15.50;99.90
18658;DHT22;9458;50.942;5.074;2023-09-19T04:09:17;15.40;99.90
18658;DHT22;9458;50.942;5.074;2023-09-19T04:11:44;15.30;99.90
18658;DHT22;9458;50.942;5.074;2023-09-19T04:14:11;15.30;99.90
18658;DHT22;9458;50.942;5.074;2023-09-19T04:16:40;15.40;99.90
18658;DHT22;9458;50.942;5.074;2023-09-19T04:19:07;15.40;99.90
18658;DHT22;9458;50.942;5.074;2023-09-19T04:21:35;15.50;99.90
18658;DHT22;9458;50.942;5.074;2023-09-19T04:24:07;15.40;99.90
18658;DHT22;9458;50.942;5.074;2023-09-19T04:26:34;15.40;99.90
18658;DHT22;9458;50.942;5.074;2023-09-19T04:29:02;15.40;99.90
18658;DHT22;9458;50.942;5.074;2023-09-19T04:31:32;15.40;99.90
18658;DHT22;9458;50.942;5.074;2023-09-19T04:34:01;15.40;99.90
18658;DHT22;9458;50.942;5.074;2023-09-19T04:36:31;15.30;99.90
18658;DHT22;9458;50.942;5.074;2023-09-19T04:38:59;15.20;99.90
18658;DHT22;9458;50.942;5.074;2023-09-19T04:41:30;15.20;99.90
18658;DHT22;9458;50.942;5.074;2023-09-19T04:43:57;15.20;99.90
18658;DHT22;9458;50.942;5.074;2023-09-19T04:46:24;15.20;99.90
18658;DHT22;9458;50.942;5.074;2023-09-19T04:48:51;15.30;99.90
18658;DHT22;9458;50.942;5.074;2023-09-19T04:51:20;15.30;99.90
18658;DHT22;9458;50.942;5.074;2023-09-19T04:53:47;15.30;99.90
18658;DHT22;9458;50.942;5.074;2023-09-19T04:56:14;15.30;99.90
18658;DHT22;9458;50.942;5.074;2023-09-19T04:58:41;15.20;99.90
18658;DHT22;9458;50.942;5.074;2023-09-19T05:01:08;15.20;99.90
18658;DHT22;9458;50.942;5.074;2023-09-19T05:03:37;15.20;99.90
18658;DHT22;9458;50.942;5.074;2023-09-19T05:06:04;15.30;99.90
18658;DHT22;9458;50.942;5.074;2023-09-19T05:08:33;15.20;99.90
18658;DHT22;9458;50.942;5.074;2023-09-19T05:11:01;15.20;99.90
18658;DHT22;9458;50.942;5.074;2023-09-19T05:13:29;15.20;99.90
18658;DHT22;9458;50.942;5.074;2023-09-19T05:15:59;15.20;99.90
18658;DHT22;9458;50.942;5.074;2023-09-19T05:18:27;15.10;99.90
18658;DHT22;9458;50.942;5.074;2023-09-19T05:20:54;15.10;99.90
18658;DHT22;9458;50.942;5.074;2023-09-19T05:23:22;15.00;99.90
18658;DHT22;9458;50.942;5.074;2023-09-19T05:25:50;14.90;99.90
18658;DHT22;9458;50.942;5.074;2023-09-19T05:28:18;14.90;99.90
18658;DHT22;9458;50.942;5.074;2023-09-19T05:30:45;15.00;99.90
18658;DHT22;9458;50.942;5.074;2023-09-19T05:33:13;14.90;99.90
18658;DHT22;9458;50.942;5.074;2023-09-19T05:35:40;14.90;99.90
18658;DHT22;9458;50.942;5.074;2023-09-19T05:38:07;15.00;99.90
18658;DHT22;9458;50.942;5.074;2023-09-19T05:40:37;15.00;99.90
18658;DHT22;9458;50.942;5.074;2023-09-19T05:43:08;15.10;99.90
18658;DHT22;9458;50.942;5.074;2023-09-19T05:45:35;15.10;99.90
18658;DHT22;9458;50.942;5.074;2023-09-19T05:48:07;15.10;99.90
18658;DHT22;9458;50.942;5.074;2023-09-19T05:50:34;15.10;99.90
18658;DHT22;9458;50.942;5.074;2023-09-19T05:53:02;15.20;99.90
18658;DHT22;9458;50.942;5.074;2023-09-19T05:55:29;15.10;99.90
18658;DHT22;9458;50.942;5.074;2023-09-19T05:57:56;15.20;99.90
18658;DHT22;9458;50.942;5.074;2023-09-19T06:00:25;15.30;99.90
18658;DHT22;9458;50.942;5.074;2023-09-19T06:02:53;15.20;99.90
18658;DHT22;9458;50.942;5.074;2023-09-19T06:05:24;15.30;99.90
18658;DHT22;9458;50.942;5.074;2023-09-19T06:07:57;15.50;99.90
18658;DHT22;9458;50.942;5.074;2023-09-19T06:10:26;15.50;99.90
18658;DHT22;9458;50.942;5.074;2023-09-19T06:12:57;15.60;99.90
18658;DHT22;9458;50.942;5.074;2023-09-19T06:15:25;15.70;99.90
18658;DHT22;9458;50.942;5.074;2023-09-19T06:17:53;15.60;99.90
18658;DHT22;9458;50.942;5.074;2023-09-19T06:20:22;15.60;99.90
18658;DHT22;9458;50.942;5.074;2023-09-19T06:22:49;15.70;99.90
18658;DHT22;9458;50.942;5.074;2023-09-19T06:25:17;15.80;99.90
18658;DHT22;9458;50.942;5.074;2023-09-19T06:27:45;15.80;99.90
18658;DHT22;9458;50.942;5.074;2023-09-19T06:30:13;15.80;99.90
18658;DHT22;9458;50.942;5.074;2023-09-19T06:32:42;16.00;99.90
18658;DHT22;9458;50.942;5.074;2023-09-19T06:35:10;15.90;99.90
18658;DHT22;9458;50.942;5.074;2023-09-19T06:37:37;16.00;99.90
18658;DHT22;9458;50.942;5.074;2023-09-19T06:40:06;16.30;99.90
18658;DHT22;9458;50.942;5.074;2023-09-19T06:42:35;16.40;99.90
18658;DHT22;9458;50.942;5.074;2023-09-19T06:45:03;16.70;99.90
18658;DHT22;9458;50.942;5.074;2023-09-19T06:47:31;16.90;99.90
18658;DHT22;9458;50.942;5.074;2023-09-19T06:50:00;17.20;99.90
18658;DHT22;9458;50.942;5.074;2023-09-19T06:52:28;17.30;99.90
18658;DHT22;9458;50.942;5.074;2023-09-19T06:54:55;17.60;99.90
18658;DHT22;9458;50.942;5.074;2023-09-19T06:57:22;17.80;99.90
18658;DHT22;9458;50.942;5.074;2023-09-19T06:59:50;18.10;99.90
18658;DHT22;9458;50.942;5.074;2023-09-19T07:02:17;18.20;99.90
18658;DHT22;9458;50.942;5.074;2023-09-19T07:04:43;18.40;99.90
18658;DHT22;9458;50.942;5.074;2023-09-19T07:07:13;18.50;99.90
18658;DHT22;9458;50.942;5.074;2023-09-19T07:09:40;18.30;99.90
18658;DHT22;9458;50.942;5.074;2023-09-19T07:12:07;17.80;99.90
18658;DHT22;9458;50.942;5.074;2023-09-19T07:14:34;17.70;99.90
18658;DHT22;9458;50.942;5.074;2023-09-19T07:17:01;17.90;99.90
18658;DHT22;9458;50.942;5.074;2023-09-19T07:19:29;18.00;99.90
18658;DHT22;9458;50.942;5.074;2023-09-19T07:21:59;18.20;99.90
18658;DHT22;9458;50.942;5.074;2023-09-19T07:24:29;17.90;99.90
18658;DHT22;9458;50.942;5.074;2023-09-19T07:26:56;18.40;99.90
18658;DHT22;9458;50.942;5.074;2023-09-19T07:29:24;18.50;99.90
18658;DHT22;9458;50.942;5.074;2023-09-19T07:31:52;18.60;99.90
18658;DHT22;9458;50.942;5.074;2023-09-19T07:34:19;18.70;99.90
18658;DHT22;9458;50.942;5.074;2023-09-19T07:36:48;19.00;99.90
18658;DHT22;9458;50.942;5.074;2023-09-19T07:39:14;19.50;99.90
18658;DHT22;9458;50.942;5.074;2023-09-19T07:41:43;19.50;99.90
18658;DHT22;9458;50.942;5.074;2023-09-19T07:44:10;19.50;99.90
18658;DHT22;9458;50.942;5.074;2023-09-19T07:46:37;19.60;99.90
18658;DHT22;9458;50.942;5.074;2023-09-19T07:49:04;19.90;99.90
18658;DHT22;9458;50.942;5.074;2023-09-19T07:51:31;19.80;99.90
18658;DHT22;9458;50.942;5.074;2023-09-19T07:54:00;20.50;99.90
18658;DHT22;9458;50.942;5.074;2023-09-19T07:56:27;20.40;99.90
18658;DHT22;9458;50.942;5.074;2023-09-19T07:58:56;20.00;99.90
18658;DHT22;9458;50.942;5.074;2023-09-19T08:01:24;20.40;99.90
18658;DHT22;9458;50.942;5.074;2023-09-19T08:03:53;20.80;99.90
18658;DHT22;9458;50.942;5.074;2023-09-19T08:06:19;21.00;99.90
18658;DHT22;9458;50.942;5.074;2023-09-19T08:08:47;21.00;99.90
18658;DHT22;9458;50.942;5.074;2023-09-19T08:11:15;20.50;99.90
18658;DHT22;9458;50.942;5.074;2023-09-19T08:13:47;20.40;99.90
18658;DHT22;9458;50.942;5.074;2023-09-19T08:16:15;20.40;99.90
18658;DHT22;9458;50.942;5.074;2023-09-19T08:18:46;20.90;99.90
18658;DHT22;9458;50.942;5.074;2023-09-19T08:21:13;21.10;99.90
18658;DHT22;9458;50.942;5.074;2023-09-19T08:23:41;21.30;99.90
18658;DHT22;9458;50.942;5.074;2023-09-19T08:26:08;21.40;99.90
18658;DHT22;9458;50.942;5.074;2023-09-19T08:28:36;22.10;99.90
18658;DHT22;9458;50.942;5.074;2023-09-19T08:31:06;22.10;99.90
18658;DHT22;9458;50.942;5.074;2023-09-19T08:33:36;22.30;99.90
18658;DHT22;9458;50.942;5.074;2023-09-19T08:36:03;21.80;99.90
18658;DHT22;9458;50.942;5.074;2023-09-19T08:38:31;21.40;99.90
18658;DHT22;9458;50.942;5.074;2023-09-19T08:40:59;21.20;99.90
18658;DHT22;9458;50.942;5.074;2023-09-19T08:43:26;21.10;99.90
18658;DHT22;9458;50.942;5.074;2023-09-19T08:45:54;21.30;99.90
18658;DHT22;9458;50.942;5.074;2023-09-19T08:48:25;21.40;99.90
18658;DHT22;9458;50.942;5.074;2023-09-19T08:50:57;21.50;99.90
18658;DHT22;9458;50.942;5.074;2023-09-19T08:53:35;21.90;99.90
18658;DHT22;9458;50.942;5.074;2023-09-19T08:56:08;21.50;99.90
18658;DHT22;9458;50.942;5.074;2023-09-19T08:58:38;21.10;99.90
18658;DHT22;9458;50.942;5.074;2023-09-19T09:01:06;21.30;99.90
18658;DHT22;9458;50.942;5.074;2023-09-19T09:03:34;21.40;99.90
18658;DHT22;9458;50.942;5.074;2023-09-19T09:06:03;20.80;99.90
18658;DHT22;9458;50.942;5.074;2023-09-19T09:08:30;20.60;99.90
18658;DHT22;9458;50.942;5.074;2023-09-19T09:10:57;21.00;99.90
18658;DHT22;9458;50.942;5.074;2023-09-19T09:13:27;21.20;99.90
18658;DHT22;9458;50.942;5.074;2023-09-19T09:15:54;20.50;99.90
18658;DHT22;9458;50.942;5.074;2023-09-19T09:18:21;20.20;99.90
18658;DHT22;9458;50.942;5.074;2023-09-19T09:20:48;20.30;99.90
18658;DHT22;9458;50.942;5.074;2023-09-19T09:23:17;20.40;99.90
18658;DHT22;9458;50.942;5.074;2023-09-19T09:25:48;20.80;99.90
18658;DHT22;9458;50.942;5.074;2023-09-19T09:28:18;21.00;99.90
18658;DHT22;9458;50.942;5.074;2023-09-19T09:30:46;20.90;99.90
18658;DHT22;9458;50.942;5.074;2023-09-19T09:33:14;21.10;99.90
18658;DHT22;9458;50.942;5.074;2023-09-19T09:35:52;21.10;99.90
18658;DHT22;9458;50.942;5.074;2023-09-19T09:38:21;21.40;99.90
18658;DHT22;9458;50.942;5.074;2023-09-19T09:40:51;21.10;99.90
18658;DHT22;9458;50.942;5.074;2023-09-19T09:43:30;20.80;99.90
18658;DHT22;9458;50.942;5.074;2023-09-19T09:46:07;21.20;99.90
18658;DHT22;9458;50.942;5.074;2023-09-19T09:48:36;21.00;99.90
18658;DHT22;9458;50.942;5.074;2023-09-19T09:51:04;21.10;99.90
18658;DHT22;9458;50.942;5.074;2023-09-19T09:53:34;21.00;99.90
18658;DHT22;9458;50.942;5.074;2023-09-19T09:56:03;21.20;99.90
18658;DHT22;9458;50.942;5.074;2023-09-19T09:58:32;21.20;99.90
18658;DHT22;9458;50.942;5.074;2023-09-19T10:01:02;21.40;99.90
18658;DHT22;9458;50.942;5.074;2023-09-19T10:03:37;21.60;99.90
18658;DHT22;9458;50.942;5.074;2023-09-19T10:06:12;21.40;99.90
18658;DHT22;9458;50.942;5.074;2023-09-19T10:09:01;21.20;99.90
18658;DHT22;9458;50.942;5.074;2023-09-19T10:11:42;20.60;99.90
18658;DHT22;9458;50.942;5.074;2023-09-19T10:14:10;20.70;99.90
18658;DHT22;9458;50.942;5.074;2023-09-19T10:16:44;20.90;99.90
18658;DHT22;9458;50.942;5.074;2023-09-19T10:19:14;21.10;99.90
18658;DHT22;9458;50.942;5.074;2023-09-19T10:21:42;21.00;99.90
18658;DHT22;9458;50.942;5.074;2023-09-19T10:24:12;20.80;99.90
18658;DHT22;9458;50.942;5.074;2023-09-19T10:26:41;20.70;99.90
18658;DHT22;9458;50.942;5.074;2023-09-19T10:29:09;20.30;99.90
18658;DHT22;9458;50.942;5.074;2023-09-19T10:31:36;20.60;99.90
18658;DHT22;9458;50.942;5.074;2023-09-19T10:34:06;20.60;99.90
18658;DHT22;9458;50.942;5.074;2023-09-19T10:36:35;20.60;99.90
18658;DHT22;9458;50.942;5.074;2023-09-19T10:39:03;20.80;99.90
18658;DHT22;9458;50.942;5.074;2023-09-19T10:41:33;20.90;99.90
18658;DHT22;9458;50.942;5.074;2023-09-19T10:44:03;20.90;99.90
18658;DHT22;9458;50.942;5.074;2023-09-19T10:46:31;21.00;99.90
18658;DHT22;9458;50.942;5.074;2023-09-19T10:48:58;21.10;99.90
18658;DHT22;9458;50.942;5.074;2023-09-19T10:51:26;20.90;99.90
18658;DHT22;9458;50.942;5.074;2023-09-19T10:53:59;21.10;99.90
18658;DHT22;9458;50.942;5.074;2023-09-19T10:56:30;21.20;99.90
18658;DHT22;9458;50.942;5.074;2023-09-19T10:59:07;21.30;99.90
18658;DHT22;9458;50.942;5.074;2023-09-19T11:01:42;21.30;99.90
18658;DHT22;9458;50.942;5.074;2023-09-19T11:04:23;21.50;99.90
18658;DHT22;9458;50.942;5.074;2023-09-19T11:07:00;21.70;99.90
18658;DHT22;9458;50.942;5.074;2023-09-19T11:09:42;21.60;99.90
18658;DHT22;9458;50.942;5.074;2023-09-19T11:12:11;21.40;99.90
18658;DHT22;9458;50.942;5.074;2023-09-19T11:14:41;21.40;99.90
18658;DHT22;9458;50.942;5.074;2023-09-19T11:20:23;21.30;99.90
18658;DHT22;9458;50.942;5.074;2023-09-19T11:23:17;21.20;99.90
18658;DHT22;9458;50.942;5.074;2023-09-19T11:25:44;21.10;99.90
18658;DHT22;9458;50.942;5.074;2023-09-19T11:28:29;21.10;99.90
18658;DHT22;9458;50.942;5.074;2023-09-19T11:30:59;21.30;99.90
18658;DHT22;9458;50.942;5.074;2023-09-19T11:33:46;21.50;99.90
18658;DHT22;9458;50.942;5.074;2023-09-19T11:36:15;21.60;99.90
18658;DHT22;9458;50.942;5.074;2023-09-19T11:38:57;21.70;99.90
18658;DHT22;9458;50.942;5.074;2023-09-19T11:41:37;21.60;99.90
18658;DHT22;9458;50.942;5.074;2023-09-19T11:46:54;21.70;99.90
18658;DHT22;9458;50.942;5.074;2023-09-19T11:49:25;21.70;99.90
18658;DHT22;9458;50.942;5.074;2023-09-19T11:51:57;21.90;99.90
18658;DHT22;9458;50.942;5.074;2023-09-19T11:54:31;21.50;99.90
18658;DHT22;9458;50.942;5.074;2023-09-19T11:56:58;21.50;99.90
18658;DHT22;9458;50.942;5.074;2023-09-19T11:59:26;21.50;99.90
18658;DHT22;9458;50.942;5.074;2023-09-19T12:01:55;21.90;99.90
18658;DHT22;9458;50.942;5.074;2023-09-19T12:07:11;21.80;99.90
18658;DHT22;9458;50.942;5.074;2023-09-19T12:09:41;21.70;99.90
18658;DHT22;9458;50.942;5.074;2023-09-19T12:12:22;21.70;99.90
18658;DHT22;9458;50.942;5.074;2023-09-19T12:14:53;21.40;99.90
18658;DHT22;9458;50.942;5.074;2023-09-19T12:17:21;21.50;99.90
18658;DHT22;9458;50.942;5.074;2023-09-19T12:19:50;21.50;99.90
18658;DHT22;9458;50.942;5.074;2023-09-19T12:22:17;21.50;99.90
18658;DHT22;9458;50.942;5.074;2023-09-19T12:24:46;21.50;99.90
18658;DHT22;9458;50.942;5.074;2023-09-19T12:27:14;21.20;99.90
18658;DHT22;9458;50.942;5.074;2023-09-19T12:29:43;21.40;99.90
18658;DHT22;9458;50.942;5.074;2023-09-19T12:32:12;21.30;99.90
18658;DHT22;9458;50.942;5.074;2023-09-19T12:34:49;21.30;99.90
18658;DHT22;9458;50.942;5.074;2023-09-19T12:37:18;21.20;99.90
18658;DHT22;9458;50.942;5.074;2023-09-19T12:39:48;21.30;99.90
18658;DHT22;9458;50.942;5.074;2023-09-19T12:42:16;21.20;99.90
18658;DHT22;9458;50.942;5.074;2023-09-19T12:44:45;21.10;99.90
18658;DHT22;9458;50.942;5.074;2023-09-19T12:47:13;21.00;99.90
18658;DHT22;9458;50.942;5.074;2023-09-19T12:52:35;21.10;99.90
18658;DHT22;9458;50.942;5.074;2023-09-19T12:55:03;21.30;99.90
18658;DHT22;9458;50.942;5.074;2023-09-19T12:57:30;21.40;99.90
18658;DHT22;9458;50.942;5.074;2023-09-19T13:00:00;21.30;99.90
18658;DHT22;9458;50.942;5.074;2023-09-19T13:02:28;21.20;99.90
18658;DHT22;9458;50.942;5.074;2023-09-19T13:04:55;21.30;99.90
18658;DHT22;9458;50.942;5.074;2023-09-19T13:07:42;21.20;99.90
18658;DHT22;9458;50.942;5.074;2023-09-19T13:10:11;21.10;99.90
18658;DHT22;9458;50.942;5.074;2023-09-19T13:12:41;21.30;99.90
18658;DHT22;9458;50.942;5.074;2023-09-19T13:15:10;21.10;99.90
18658;DHT22;9458;50.942;5.074;2023-09-19T13:17:45;21.00;99.90
18658;DHT22;9458;50.942;5.074;2023-09-19T13:20:23;21.20;99.90
18658;DHT22;9458;50.942;5.074;2023-09-19T13:22:56;21.40;99.90
18658;DHT22;9458;50.942;5.074;2023-09-19T13:25:26;21.60;99.90
18658;DHT22;9458;50.942;5.074;2023-09-19T13:27:56;21.40;99.90
18658;DHT22;9458;50.942;5.074;2023-09-19T13:30:26;21.60;99.90
18658;DHT22;9458;50.942;5.074;2023-09-19T13:33:04;21.40;99.90
18658;DHT22;9458;50.942;5.074;2023-09-19T13:35:31;21.60;99.90
18658;DHT22;9458;50.942;5.074;2023-09-19T13:37:59;21.30;99.90
18658;DHT22;9458;50.942;5.074;2023-09-19T13:40:26;21.10;99.90
18658;DHT22;9458;50.942;5.074;2023-09-19T13:42:56;21.10;99.90
18658;DHT22;9458;50.942;5.074;2023-09-19T13:45:23;21.00;99.90
18658;DHT22;9458;50.942;5.074;2023-09-19T13:47:56;21.30;99.90
18658;DHT22;9458;50.942;5.074;2023-09-19T13:50:24;21.20;99.90
18658;DHT22;9458;50.942;5.074;2023-09-19T13:52:54;21.00;99.90
18658;DHT22;9458;50.942;5.074;2023-09-19T13:55:23;20.90;99.90
18658;DHT22;9458;50.942;5.074;2023-09-19T13:57:50;21.00;99.90
18658;DHT22;9458;50.942;5.074;2023-09-19T14:00:20;20.90;99.90
18658;DHT22;9458;50.942;5.074;2023-09-19T14:02:57;20.90;99.90
18658;DHT22;9458;50.942;5.074;2023-09-19T14:05:26;20.90;99.90
18658;DHT22;9458;50.942;5.074;2023-09-19T14:07:53;20.60;99.90
18658;DHT22;9458;50.942;5.074;2023-09-19T14:10:22;20.80;99.90
18658;DHT22;9458;50.942;5.074;2023-09-19T14:12:51;20.80;99.90
18658;DHT22;9458;50.942;5.074;2023-09-19T14:15:19;20.90;99.90
18658;DHT22;9458;50.942;5.074;2023-09-19T14:17:45;20.90;99.90
18658;DHT22;9458;50.942;5.074;2023-09-19T14:20:12;20.80;99.90
18658;DHT22;9458;50.942;5.074;2023-09-19T14:22:41;20.80;99.90
18658;DHT22;9458;50.942;5.074;2023-09-19T14:25:08;20.80;99.90
18658;DHT22;9458;50.942;5.074;2023-09-19T14:27:37;20.80;99.90
18658;DHT22;9458;50.942;5.074;2023-09-19T14:30:05;20.70;99.90
18658;DHT22;9458;50.942;5.074;2023-09-19T14:32:32;20.80;99.90
18658;DHT22;9458;50.942;5.074;2023-09-19T14:34:59;20.70;99.90
18658;DHT22;9458;50.942;5.074;2023-09-19T14:37:26;20.70;99.90
18658;DHT22;9458;50.942;5.074;2023-09-19T14:39:54;20.80;99.90
18658;DHT22;9458;50.942;5.074;2023-09-19T14:42:21;20.70;99.90
18658;DHT22;9458;50.942;5.074;2023-09-19T14:44:50;20.70;99.90
18658;DHT22;9458;50.942;5.074;2023-09-19T14:47:17;20.80;99.90
18658;DHT22;9458;50.942;5.074;2023-09-19T14:49:44;20.60;99.90
18658;DHT22;9458;50.942;5.074;2023-09-19T14:52:11;20.60;99.90
18658;DHT22;9458;50.942;5.074;2023-09-19T14:54:41;20.70;99.90
18658;DHT22;9458;50.942;5.074;2023-09-19T14:57:08;20.60;99.90
18658;DHT22;9458;50.942;5.074;2023-09-19T14:59:35;20.70;99.90
18658;DHT22;9458;50.942;5.074;2023-09-19T15:02:04;20.60;99.90
18658;DHT22;9458;50.942;5.074;2023-09-19T15:04:32;20.70;99.90
18658;DHT22;9458;50.942;5.074;2023-09-19T15:06:59;20.70;99.90
18658;DHT22;9458;50.942;5.074;2023-09-19T15:09:26;20.60;99.90
18658;DHT22;9458;50.942;5.074;2023-09-19T15:11:53;20.60;99.90
18658;DHT22;9458;50.942;5.074;2023-09-19T15:14:20;20.70;99.90
18658;DHT22;9458;50.942;5.074;2023-09-19T15:16:47;20.90;99.90
18658;DHT22;9458;50.942;5.074;2023-09-19T15:19:16;20.80;99.90
18658;DHT22;9458;50.942;5.074;2023-09-19T15:21:43;20.80;99.90
18658;DHT22;9458;50.942;5.074;2023-09-19T15:24:10;20.80;99.90
18658;DHT22;9458;50.942;5.074;2023-09-19T15:26:37;20.70;99.90
18658;DHT22;9458;50.942;5.074;2023-09-19T15:29:05;20.80;99.90
18658;DHT22;9458;50.942;5.074;2023-09-19T15:31:32;20.60;99.90
18658;DHT22;9458;50.942;5.074;2023-09-19T15:33:59;20.50;99.90
18658;DHT22;9458;50.942;5.074;2023-09-19T15:36:30;20.50;99.90
18658;DHT22;9458;50.942;5.074;2023-09-19T15:39:20;20.50;99.90
18658;DHT22;9458;50.942;5.074;2023-09-19T15:41:49;20.30;99.90
18658;DHT22;9458;50.942;5.074;2023-09-19T15:44:17;20.20;99.90
18658;DHT22;9458;50.942;5.074;2023-09-19T15:46:44;20.10;99.90
18658;DHT22;9458;50.942;5.074;2023-09-19T15:49:11;20.10;99.90
18658;DHT22;9458;50.942;5.074;2023-09-19T15:51:40;20.30;99.90
18658;DHT22;9458;50.942;5.074;2023-09-19T15:54:10;20.10;99.90
18658;DHT22;9458;50.942;5.074;2023-09-19T15:56:39;20.20;99.90
18658;DHT22;9458;50.942;5.074;2023-09-19T15:59:08;20.20;99.90
18658;DHT22;9458;50.942;5.074;2023-09-19T16:01:38;20.10;99.90
18658;DHT22;9458;50.942;5.074;2023-09-19T16:04:06;20.10;99.90
18658;DHT22;9458;50.942;5.074;2023-09-19T16:06:35;20.00;99.90
18658;DHT22;9458;50.942;5.074;2023-09-19T16:09:04;20.10;99.90
18658;DHT22;9458;50.942;5.074;2023-09-19T16:11:33;20.20;99.90
18658;DHT22;9458;50.942;5.074;2023-09-19T16:14:00;20.20;99.90